Time;durP1;ratioP1;P1;durP2;ratioP2;P2;SDS_P1;SDS_P2;PMS_P1;PMS_P2;Temp;Humidity;BMP_temperature;BMP_pressure;BME280_temperature;BME280_humidity;BME280_pressure;Samples;Min_cycle;Max_cycle;Signal;HPM_P1;HPM_P2
2023/08/28 18:08:00;;;;;;;;;;;26.30;77.50;;;;;;5111388;27;19916;-90
2023/08/28 18:10:26;;;;;;;;;;;25.90;78.50;;;;;;5140604;27;19947;-90
2023/08/28 18:12:51;;;;;;;;;;;25.90;79.60;;;;;;5122985;27;20332;-92
2023/08/28 18:15:17;;;;;;;;;;;25.90;80.30;;;;;;5082005;28;20033;-89
2023/08/28 18:17:42;;;;;;;;;;;25.90;80.90;;;;;;5105278;28;20360;-90
2023/08/28 18:20:08;;;;;;;;;;;25.90;81.40;;;;;;5132070;27;20437;-90
2023/08/28 18:22:33;;;;;;;;;;;26.00;81.90;;;;;;5096098;28;20416;-90
2023/08/28 18:25:00;;;;;;;;;;;26.00;82.10;;;;;;5110578;28;19915;-91
2023/08/28 18:27:26;;;;;;;;;;;26.00;82.40;;;;;;5109604;28;19916;-91
2023/08/28 18:29:52;;;;;;;;;;;26.00;82.60;;;;;;5110451;28;19958;-89
2023/08/28 18:32:17;;;;;;;;;;;26.00;82.90;;;;;;5111724;28;19908;-89
2023/08/28 18:34:43;;;;;;;;;;;26.10;83.10;;;;;;5096261;28;20431;-90
2023/08/28 18:37:08;;;;;;;;;;;26.00;83.20;;;;;;5072618;28;19908;-92
2023/08/28 18:39:34;;;;;;;;;;;26.10;83.40;;;;;;5088683;28;20276;-91
2023/08/28 18:41:59;;;;;;;;;;;26.10;83.60;;;;;;5091250;28;19912;-92
2023/08/28 18:44:25;;;;;;;;;;;26.10;83.80;;;;;;5090393;28;19908;-92
2023/08/28 18:46:53;;;;;;;;;;;26.10;83.80;;;;;;5142246;27;19961;-92
2023/08/28 18:49:18;;;;;;;;;;;26.00;83.90;;;;;;5111577;28;19940;-90
2023/08/28 18:51:44;;;;;;;;;;;26.00;84.20;;;;;;5110119;28;19955;-91
2023/08/28 18:54:09;;;;;;;;;;;26.00;84.50;;;;;;5097620;28;19916;-92
2023/08/28 18:56:35;;;;;;;;;;;26.00;84.60;;;;;;5111546;28;19912;-91
2023/08/28 18:59:00;;;;;;;;;;;25.90;84.70;;;;;;5107368;28;20002;-91
2023/08/28 19:01:28;;;;;;;;;;;25.90;84.90;;;;;;5110152;28;19960;-91
2023/08/28 19:03:54;;;;;;;;;;;25.90;85.10;;;;;;5109987;28;19909;-90
2023/08/28 19:06:19;;;;;;;;;;;25.90;85.20;;;;;;5101708;28;19924;-91
2023/08/28 19:08:45;;;;;;;;;;;25.80;85.30;;;;;;5092874;28;21444;-92
2023/08/28 19:11:11;;;;;;;;;;;25.80;85.50;;;;;;5121842;28;20272;-91
2023/08/28 19:13:37;;;;;;;;;;;25.80;85.70;;;;;;5120334;27;19912;-92
2023/08/28 19:16:02;;;;;;;;;;;25.80;85.90;;;;;;5091101;28;19923;-93
2023/08/28 19:18:28;;;;;;;;;;;25.80;86.10;;;;;;5070229;28;19908;-92
2023/08/28 19:20:53;;;;;;;;;;;25.70;86.20;;;;;;5076028;28;19909;-93
2023/08/28 19:23:19;;;;;;;;;;;25.70;86.40;;;;;;5061828;28;20297;-91
2023/08/28 19:25:44;;;;;;;;;;;25.70;86.60;;;;;;5058163;28;19924;-92
2023/08/28 19:28:10;;;;;;;;;;;25.60;86.70;;;;;;5089196;28;19941;-90
2023/08/28 19:30:35;;;;;;;;;;;25.60;86.90;;;;;;5129865;27;19908;-92
2023/08/28 19:33:02;;;;;;;;;;;25.60;87.00;;;;;;5097014;28;19908;-89
2023/08/28 19:35:28;;;;;;;;;;;25.60;87.20;;;;;;5081865;28;20007;-89
2023/08/28 19:37:53;;;;;;;;;;;25.60;87.40;;;;;;5073015;28;20032;-92
2023/08/28 19:40:20;;;;;;;;;;;25.50;87.40;;;;;;5076104;28;20417;-90
2023/08/28 19:42:45;;;;;;;;;;;25.50;87.60;;;;;;5074606;28;20003;-91
2023/08/28 19:45:11;;;;;;;;;;;25.50;87.70;;;;;;5092125;28;19959;-90
2023/08/28 19:47:37;;;;;;;;;;;25.50;87.90;;;;;;5094547;28;19954;-92
2023/08/28 19:50:04;;;;;;;;;;;25.50;88.20;;;;;;5096676;28;20368;-90
2023/08/28 19:52:29;;;;;;;;;;;25.40;88.20;;;;;;5082465;28;19960;-90
